createdAt,value
2023-10-15T00:00:26.224Z,101847.09
2023-10-15T00:02:54.030Z,101841.03
2023-10-15T00:05:29.304Z,101843.72
2023-10-15T00:07:58.758Z,101842.19
2023-10-15T00:10:31.951Z,101850.88
2023-10-15T00:12:59.648Z,101853.06
2023-10-15T00:15:30.225Z,101877.66
2023-10-15T00:18:01.181Z,101843.59
2023-10-15T00:20:33.508Z,101818.53
2023-10-15T00:23:07.477Z,101817.50
2023-10-15T00:25:38.097Z,101823.41
2023-10-15T00:28:10.466Z,101839.13
2023-10-15T00:30:38.649Z,101833.22
2023-10-15T00:33:08.205Z,101846.22
2023-10-15T00:35:36.373Z,101832.22
2023-10-15T00:38:20.571Z,101824.53
2023-10-15T00:40:54.949Z,101825.56
2023-10-15T00:43:22.677Z,101806.38
2023-10-15T00:45:50.233Z,101806.38
2023-10-15T00:48:40.518Z,101815.19
2023-10-15T00:51:14.866Z,101803.75
2023-10-15T00:53:55.155Z,101802.03
2023-10-15T00:56:26.801Z,101818.63
2023-10-15T00:58:54.114Z,101814.34
2023-10-15T01:01:28.019Z,101810.78
2023-10-15T01:04:00.702Z,101826.63
2023-10-15T01:06:31.589Z,101829.13
2023-10-15T01:09:28.764Z,101835.59
2023-10-15T01:11:57.694Z,101825.34
2023-10-15T01:14:45.827Z,101824.28
2023-10-15T01:17:13.069Z,101815.56
2023-10-15T01:19:40.276Z,101829.38
2023-10-15T01:22:10.556Z,101836.59
2023-10-15T01:24:39.870Z,101825.22
2023-10-15T01:27:09.637Z,101816.34
2023-10-15T01:29:49.308Z,101816.47
2023-10-15T01:32:32.366Z,101819.03
2023-10-15T01:35:02.299Z,101813.00
2023-10-15T01:37:29.653Z,101821.72
2023-10-15T01:40:12.062Z,101822.50
2023-10-15T01:42:42.310Z,101811.91
2023-10-15T01:45:13.183Z,101817.97
2023-10-15T01:47:51.604Z,101818.88
2023-10-15T01:50:25.323Z,101807.72
2023-10-15T01:53:02.271Z,101801.38
2023-10-15T01:55:30.709Z,101804.94
2023-10-15T01:58:06.111Z,101802.41
2023-10-15T02:00:42.709Z,101804.88
2023-10-15T02:03:11.981Z,101807.56
2023-10-15T02:05:42.465Z,101809.38
2023-10-15T02:08:24.019Z,101805.78
2023-10-15T02:10:54.833Z,101819.09
2023-10-15T02:13:24.229Z,101801.50
2023-10-15T02:15:51.292Z,101806.88
2023-10-15T02:18:19.028Z,101815.56
2023-10-15T02:21:01.932Z,101803.31
2023-10-15T02:23:34.021Z,101807.81
2023-10-15T02:26:01.705Z,101810.19
2023-10-15T02:28:36.678Z,101807.56
2023-10-15T02:31:04.061Z,101796.91
2023-10-15T02:33:31.474Z,101812.56
2023-10-15T02:36:00.633Z,101809.94
2023-10-15T02:38:35.005Z,101802.91
2023-10-15T02:41:06.834Z,101813.28
2023-10-15T02:43:42.094Z,101805.41
2023-10-15T02:46:25.072Z,101810.59
2023-10-15T02:48:55.217Z,101819.94
2023-10-15T02:51:26.294Z,101817.50
2023-10-15T02:53:55.807Z,101807.03
2023-10-15T02:56:24.092Z,101797.44
2023-10-15T02:58:52.071Z,101810.41
2023-10-15T03:01:24.885Z,101812.03
2023-10-15T03:03:54.494Z,101811.13
2023-10-15T03:06:28.975Z,101812.91
2023-10-15T03:08:57.666Z,101812.69
2023-10-15T03:11:26.604Z,101821.28
2023-10-15T03:13:56.641Z,101808.13
2023-10-15T03:16:31.473Z,101824.06
2023-10-15T03:19:08.251Z,101814.91
2023-10-15T03:21:39.988Z,101814.91
2023-10-15T03:24:08.055Z,101805.19
2023-10-15T03:26:35.923Z,101809.06
2023-10-15T03:29:14.810Z,101809.00
2023-10-15T03:31:49.267Z,101816.81
2023-10-15T03:34:23.473Z,101817.31
2023-10-15T03:36:52.035Z,101825.19
2023-10-15T03:39:32.680Z,101831.97
2023-10-15T03:42:18.911Z,101833.50
2023-10-15T03:44:48.805Z,101829.06
2023-10-15T03:47:23.163Z,101825.56
2023-10-15T03:49:52.680Z,101826.41
2023-10-15T03:52:23.468Z,101830.31
2023-10-15T03:54:53.693Z,101836.25
2023-10-15T03:57:35.967Z,101842.25
2023-10-15T04:00:07.898Z,101840.66
2023-10-15T04:02:55.665Z,101833.31
2023-10-15T04:05:29.062Z,101831.56
2023-10-15T04:07:56.621Z,101832.94
2023-10-15T04:10:50.019Z,101826.84
2023-10-15T04:13:16.998Z,101826.72
2023-10-15T04:15:43.941Z,101833.75
2023-10-15T04:18:11.131Z,101846.09
2023-10-15T04:20:43.330Z,101842.53
2023-10-15T04:23:13.307Z,101854.31
2023-10-15T04:25:41.039Z,101849.91
2023-10-15T04:28:17.251Z,101853.56
2023-10-15T04:30:44.400Z,101859.44
2023-10-15T04:33:19.661Z,101862.13
2023-10-15T04:35:49.872Z,101863.47
2023-10-15T04:38:23.209Z,101858.94
2023-10-15T04:40:59.423Z,101869.16
2023-10-15T04:43:27.875Z,101875.91
2023-10-15T04:45:56.719Z,101874.19
2023-10-15T04:48:28.061Z,101878.06
2023-10-15T04:50:57.832Z,101874.75
2023-10-15T04:53:31.969Z,101876.34
2023-10-15T04:56:02.467Z,101876.34
2023-10-15T04:58:29.938Z,101868.38
2023-10-15T05:01:00.573Z,101862.59
2023-10-15T05:03:27.729Z,101869.06
2023-10-15T05:06:00.753Z,101856.28
2023-10-15T05:08:27.761Z,101862.94
2023-10-15T05:10:55.778Z,101864.59
2023-10-15T05:13:23.018Z,101865.47
2023-10-15T05:15:50.856Z,101852.13
2023-10-15T05:18:20.356Z,101852.88
2023-10-15T05:20:52.060Z,101857.34
2023-10-15T05:23:20.831Z,101850.34
2023-10-15T05:25:50.892Z,101859.75
2023-10-15T05:28:18.672Z,101866.81
2023-10-15T05:30:46.803Z,101887.88
2023-10-15T05:33:15.066Z,101875.69
2023-10-15T05:35:48.617Z,101880.16
2023-10-15T05:38:18.193Z,101887.91
2023-10-15T05:40:45.861Z,101875.59
2023-10-15T05:43:12.948Z,101880.63
2023-10-15T05:45:40.698Z,101885.09
2023-10-15T05:48:08.625Z,101881.31
2023-10-15T05:50:35.800Z,101897.94
2023-10-15T05:53:02.975Z,101910.88
2023-10-15T05:55:30.468Z,101915.56
2023-10-15T05:57:59.499Z,101914.94
2023-10-15T06:00:29.855Z,101910.25
2023-10-15T06:02:58.316Z,101908.53
2023-10-15T06:05:25.662Z,101919.34
2023-10-15T06:07:55.956Z,101921.41
2023-10-15T06:10:23.632Z,101920.78
2023-10-15T06:12:50.682Z,101921.56
2023-10-15T06:15:20.008Z,101911.28
2023-10-15T06:17:48.540Z,101916.59
2023-10-15T06:20:16.295Z,101918.25
2023-10-15T06:22:47.044Z,101914.19
2023-10-15T06:25:18.188Z,101920.09
2023-10-15T06:27:46.184Z,101915.56
2023-10-15T06:30:19.943Z,101931.19
2023-10-15T06:32:50.171Z,101934.72
2023-10-15T06:35:21.835Z,101930.22
2023-10-15T06:37:51.280Z,101932.97
2023-10-15T06:40:23.523Z,101946.22
2023-10-15T06:42:53.293Z,101958.47
2023-10-15T06:45:21.956Z,101950.84
2023-10-15T06:47:54.043Z,101950.38
2023-10-15T06:50:25.877Z,101948.31
2023-10-15T06:52:55.546Z,101958.34
2023-10-15T06:55:23.102Z,101966.22
2023-10-15T06:57:51.529Z,101972.28
2023-10-15T07:00:39.789Z,101973.25
2023-10-15T07:03:07.086Z,101971.66
2023-10-15T07:05:34.834Z,101976.19
2023-10-15T07:08:02.628Z,101991.13
2023-10-15T07:10:30.310Z,102007.81
2023-10-15T07:12:57.431Z,102007.00
2023-10-15T07:15:26.266Z,101996.94
2023-10-15T07:17:54.770Z,101997.91
2023-10-15T07:20:26.850Z,101982.25
2023-10-15T07:22:55.475Z,101985.84
2023-10-15T07:25:25.997Z,101988.91
2023-10-15T07:27:55.219Z,101997.59
2023-10-15T07:30:22.663Z,102000.28
2023-10-15T07:32:55.197Z,102001.69
2023-10-15T07:35:23.021Z,102011.97
2023-10-15T07:37:52.881Z,102014.78
2023-10-15T07:40:28.674Z,102014.09
2023-10-15T07:43:01.192Z,102025.66
2023-10-15T07:45:32.007Z,102035.25
2023-10-15T07:48:02.959Z,102042.91
2023-10-15T07:50:32.154Z,102048.22
2023-10-15T07:53:00.491Z,102052.38
2023-10-15T07:55:28.403Z,102071.81
2023-10-15T07:57:55.445Z,102060.56
2023-10-15T08:00:27.247Z,102064.22
2023-10-15T08:02:59.359Z,102069.59
2023-10-15T08:05:32.797Z,102073.34
2023-10-15T08:08:01.280Z,102081.03
2023-10-15T08:10:33.718Z,102070.09
2023-10-15T08:13:03.117Z,102077.75
2023-10-15T08:15:30.121Z,102070.72
2023-10-15T08:17:59.853Z,102061.13
2023-10-15T08:20:29.203Z,102066.50
2023-10-15T08:22:56.409Z,102057.03
2023-10-15T08:25:23.808Z,102064.97
2023-10-15T08:27:51.074Z,102083.50
2023-10-15T08:30:19.076Z,102092.84
2023-10-15T08:32:47.938Z,102098.34
2023-10-15T08:35:16.626Z,102106.28
2023-10-15T08:37:47.305Z,102112.59
2023-10-15T08:40:19.374Z,102116.13
2023-10-15T08:43:00.562Z,102116.78
2023-10-15T08:45:28.178Z,102117.91
2023-10-15T08:47:57.264Z,102124.94
2023-10-15T08:50:25.148Z,102122.84
2023-10-15T08:52:54.356Z,102135.50
2023-10-15T08:55:23.960Z,102140.88
2023-10-15T08:57:58.369Z,102137.34
2023-10-15T09:00:32.986Z,102136.66
2023-10-15T09:03:04.757Z,102116.06
2023-10-15T09:05:38.498Z,102117.03
2023-10-15T09:08:08.675Z,102114.53
2023-10-15T09:10:42.512Z,102104.22
2023-10-15T09:13:25.480Z,102120.22
2023-10-15T09:15:56.759Z,102123.78
2023-10-15T09:18:26.851Z,102132.69
2023-10-15T09:20:59.517Z,102137.44
2023-10-15T09:23:26.702Z,102144.75
2023-10-15T09:25:56.996Z,102144.53
2023-10-15T09:28:29.351Z,102151.84
2023-10-15T09:31:08.350Z,102157.84
2023-10-15T09:33:35.932Z,102161.97
2023-10-15T09:36:05.143Z,102170.78
2023-10-15T09:38:36.605Z,102185.06
2023-10-15T09:41:04.385Z,102185.38
2023-10-15T09:43:38.670Z,102189.34
2023-10-15T09:46:10.766Z,102190.63
2023-10-15T09:48:39.222Z,102198.63
2023-10-15T09:51:10.877Z,102197.94
2023-10-15T09:53:43.155Z,102193.97
2023-10-15T09:56:13.572Z,102209.59
2023-10-15T09:58:40.972Z,102197.41
2023-10-15T10:01:34.632Z,102202.56
2023-10-15T10:04:28.633Z,102200.09
2023-10-15T10:07:18.852Z,102208.00
2023-10-15T10:10:00.590Z,102214.31
2023-10-15T10:12:48.458Z,102211.59
2023-10-15T10:16:01.399Z,102218.16
2023-10-15T10:18:28.691Z,102230.44
2023-10-15T10:20:57.693Z,102224.72
2023-10-15T10:23:32.132Z,102230.94
2023-10-15T10:26:20.246Z,102236.69
2023-10-15T10:28:48.167Z,102234.06
2023-10-15T10:31:15.589Z,102238.91
2023-10-15T10:33:55.650Z,102235.56
2023-10-15T10:36:29.349Z,102235.34
2023-10-15T10:39:18.519Z,102237.25
2023-10-15T10:41:51.785Z,102241.13
2023-10-15T10:44:27.570Z,102248.47
2023-10-15T10:46:59.373Z,102250.72
2023-10-15T10:49:41.708Z,102240.59
2023-10-15T10:52:18.533Z,102238.66
2023-10-15T10:54:49.864Z,102231.84
2023-10-15T10:57:21.899Z,102239.25
2023-10-15T10:59:50.275Z,102247.69
2023-10-15T11:02:18.640Z,102242.53
2023-10-15T11:04:47.092Z,102233.50
2023-10-15T11:07:15.916Z,102223.78
2023-10-15T11:09:45.503Z,102243.78
2023-10-15T11:12:16.097Z,102245.34
2023-10-15T11:14:44.069Z,102241.75
2023-10-15T11:17:11.325Z,102234.72
2023-10-15T11:19:39.543Z,102233.38
2023-10-15T11:22:07.264Z,102247.38
2023-10-15T11:24:36.616Z,102234.53
2023-10-15T11:27:08.084Z,102234.66
2023-10-15T11:29:36.169Z,102240.06
2023-10-15T11:32:03.399Z,102240.53
2023-10-15T11:34:32.897Z,102231.53
2023-10-15T11:37:02.657Z,102234.53
2023-10-15T11:39:39.170Z,102225.00
2023-10-15T11:42:09.463Z,102236.22
2023-10-15T11:44:46.076Z,102225.94
2023-10-15T11:47:18.020Z,102226.56
2023-10-15T11:49:45.874Z,102222.03
2023-10-15T11:52:20.568Z,102217.00
2023-10-15T11:54:51.705Z,102212.28
2023-10-15T11:57:24.701Z,102211.16
2023-10-15T11:59:56.221Z,102206.38
2023-10-15T12:02:24.041Z,102205.53
2023-10-15T12:04:53.023Z,102206.41
2023-10-15T12:07:23.066Z,102206.09
2023-10-15T12:09:50.750Z,102212.50
2023-10-15T12:12:19.468Z,102207.38
2023-10-15T12:14:48.880Z,102212.72
2023-10-15T12:17:17.824Z,102215.47
2023-10-15T12:19:46.805Z,102216.72
2023-10-15T12:22:17.250Z,102224.50
2023-10-15T12:24:45.029Z,102224.94
2023-10-15T12:27:12.456Z,102253.19
2023-10-15T12:29:40.605Z,102258.31
2023-10-15T12:32:13.893Z,102303.69
2023-10-15T12:34:41.439Z,102287.41
2023-10-15T12:37:08.847Z,102242.84
2023-10-15T12:39:41.544Z,102226.63
2023-10-15T12:42:10.184Z,102231.75
2023-10-15T12:44:40.611Z,102220.69
2023-10-15T12:47:11.438Z,102218.84
2023-10-15T12:49:39.182Z,102225.25
2023-10-15T12:52:06.753Z,102223.78
2023-10-15T12:54:35.134Z,102226.06
2023-10-15T12:57:04.284Z,102221.59
2023-10-15T12:59:31.705Z,102213.28
2023-10-15T13:01:58.979Z,102208.44
2023-10-15T13:04:26.275Z,102213.38
2023-10-15T13:06:53.361Z,102218.66
2023-10-15T13:09:20.536Z,102213.44
2023-10-15T13:11:47.622Z,102219.13
2023-10-15T13:14:14.752Z,102220.59
2023-10-15T13:16:41.893Z,102217.88
2023-10-15T13:19:09.265Z,102225.16
2023-10-15T13:21:36.888Z,102221.84
2023-10-15T13:24:06.971Z,102220.00
2023-10-15T13:26:34.356Z,102225.22
2023-10-15T13:29:01.596Z,102217.88
2023-10-15T13:31:31.171Z,102219.19
2023-10-15T13:33:58.137Z,102217.88
2023-10-15T13:36:25.106Z,102217.13
2023-10-15T13:38:52.667Z,102228.72
2023-10-15T13:41:22.121Z,102225.03
2023-10-15T13:43:49.368Z,102237.19
2023-10-15T13:46:16.368Z,102227.09
2023-10-15T13:48:43.405Z,102235.50
2023-10-15T13:51:10.549Z,102248.69
2023-10-15T13:53:37.506Z,102252.03
2023-10-15T13:56:04.921Z,102263.63
2023-10-15T13:58:31.878Z,102265.72
2023-10-15T14:01:00.449Z,102251.25
2023-10-15T14:03:27.638Z,102249.69
2023-10-15T14:05:54.767Z,102249.09
2023-10-15T14:08:22.824Z,102254.69
2023-10-15T14:10:52.266Z,102257.56
2023-10-15T14:13:21.027Z,102262.47
2023-10-15T14:15:48.675Z,102256.63
2023-10-15T14:18:16.521Z,102259.19
2023-10-15T14:20:45.486Z,102257.25
2023-10-15T14:23:12.545Z,102255.97
2023-10-15T14:25:39.589Z,102258.25
2023-10-15T14:28:06.558Z,102255.38
2023-10-15T14:30:34.117Z,102256.63
2023-10-15T14:33:01.252Z,102265.81
2023-10-15T14:35:28.455Z,102265.81
2023-10-15T14:37:55.543Z,102270.00
2023-10-15T14:40:22.775Z,102287.50
2023-10-15T14:42:51.382Z,102297.25
2023-10-15T14:45:22.461Z,102307.16
2023-10-15T14:47:49.470Z,102304.47
2023-10-15T14:50:16.539Z,102294.34
2023-10-15T14:52:43.588Z,102285.28
2023-10-15T14:55:10.922Z,102280.13
2023-10-15T14:57:38.551Z,102278.97
2023-10-15T15:00:07.278Z,102279.03
2023-10-15T15:02:34.409Z,102277.91
2023-10-15T15:05:01.572Z,102275.75
2023-10-15T15:07:29.185Z,102281.03
2023-10-15T15:09:57.019Z,102268.22
2023-10-15T15:12:24.211Z,102266.47
2023-10-15T15:14:51.143Z,102277.50
2023-10-15T15:17:18.240Z,102286.97
2023-10-15T15:19:45.940Z,102281.69
2023-10-15T15:22:13.155Z,102282.78
2023-10-15T15:24:42.447Z,102282.19
2023-10-15T15:27:12.198Z,102290.78
2023-10-15T15:29:39.234Z,102289.09
2023-10-15T15:32:06.392Z,102296.56
2023-10-15T15:34:33.585Z,102294.16
2023-10-15T15:37:01.063Z,102296.16
2023-10-15T15:39:28.471Z,102293.19
2023-10-15T15:41:55.650Z,102300.19
2023-10-15T15:44:23.843Z,102297.00
2023-10-15T15:46:51.367Z,102298.63
2023-10-15T15:49:18.594Z,102296.09
2023-10-15T15:51:45.573Z,102293.47
2023-10-15T15:54:12.942Z,102297.19
2023-10-15T15:56:40.030Z,102288.81
2023-10-15T15:59:07.093Z,102305.56
2023-10-15T16:04:11.363Z,102306.34
2023-10-15T16:06:39.692Z,102311.63
2023-10-15T16:09:10.498Z,102320.38
2023-10-15T16:11:40.240Z,102315.88
2023-10-15T16:14:07.537Z,102314.81
2023-10-15T16:16:34.635Z,102319.13
2023-10-15T16:19:01.637Z,102316.44
2023-10-15T16:21:28.560Z,102316.50
2023-10-15T16:23:55.706Z,102312.91
2023-10-15T16:26:23.642Z,102318.19
2023-10-15T16:28:50.707Z,102322.28
2023-10-15T16:31:17.730Z,102321.16
2023-10-15T16:33:45.118Z,102308.13
2023-10-15T16:36:12.799Z,102325.38
2023-10-15T16:38:39.865Z,102329.56
2023-10-15T16:41:06.898Z,102332.31
2023-10-15T16:43:33.963Z,102333.88
2023-10-15T16:46:01.556Z,102337.28
2023-10-15T16:48:29.403Z,102345.00
2023-10-15T16:51:06.356Z,102345.59
2023-10-15T16:53:37.341Z,102339.06
2023-10-15T16:56:06.802Z,102347.09
2023-10-15T16:58:38.419Z,102346.19
2023-10-15T17:01:07.431Z,102351.53
2023-10-15T17:03:34.434Z,102342.81
2023-10-15T17:06:05.047Z,102350.38
2023-10-15T17:08:33.190Z,102355.41
2023-10-15T17:11:00.153Z,102357.78
2023-10-15T17:13:27.058Z,102358.53
2023-10-15T17:15:53.974Z,102358.41
2023-10-15T17:18:21.139Z,102368.91
2023-10-15T17:20:48.157Z,102362.81
2023-10-15T17:23:15.192Z,102368.59
2023-10-15T17:25:42.298Z,102367.31
2023-10-15T17:28:11.068Z,102371.81
2023-10-15T17:30:38.274Z,102367.25
2023-10-15T17:33:07.171Z,102381.16
2023-10-15T17:35:34.522Z,102374.72
2023-10-15T17:38:01.486Z,102381.19
2023-10-15T17:40:29.706Z,102381.25
2023-10-15T17:42:56.715Z,102396.38
2023-10-15T17:45:26.657Z,102393.16
2023-10-15T17:47:59.090Z,102398.88
2023-10-15T17:50:30.035Z,102399.69
2023-10-15T17:52:57.393Z,102397.72
2023-10-15T17:55:25.153Z,102406.03
2023-10-15T17:57:52.344Z,102408.44
2023-10-15T18:00:19.418Z,102412.94
2023-10-15T18:02:47.048Z,102412.44
2023-10-15T18:05:14.316Z,102417.00
2023-10-15T18:07:41.484Z,102414.16
2023-10-15T18:10:09.376Z,102415.88
2023-10-15T18:12:37.075Z,102423.97
2023-10-15T18:15:07.627Z,102427.28
2023-10-15T18:17:34.830Z,102420.09
2023-10-15T18:20:01.948Z,102429.81
2023-10-15T18:22:28.983Z,102434.31
2023-10-15T18:24:55.942Z,102435.75
2023-10-15T18:27:24.111Z,102436.28
2023-10-15T18:29:51.134Z,102441.94
2023-10-15T18:32:18.714Z,102436.69
2023-10-15T18:34:46.336Z,102439.31
2023-10-15T18:37:13.576Z,102442.53
2023-10-15T18:39:40.836Z,102449.28
2023-10-15T18:42:11.082Z,102441.03
2023-10-15T18:44:39.614Z,102450.78
2023-10-15T18:47:08.787Z,102448.19
2023-10-15T18:49:37.428Z,102457.16
2023-10-15T18:52:04.641Z,102458.44
2023-10-15T18:54:31.706Z,102450.41
2023-10-15T18:56:58.778Z,102456.84
2023-10-15T18:59:26.135Z,102451.34
2023-10-15T19:01:53.197Z,102447.66
2023-10-15T19:04:20.256Z,102444.41
2023-10-15T19:06:48.113Z,102448.66
2023-10-15T19:09:17.494Z,102450.78
2023-10-15T19:11:46.386Z,102443.34
2023-10-15T19:14:13.962Z,102450.97
2023-10-15T19:16:41.359Z,102449.16
2023-10-15T19:19:13.206Z,102453.25
2023-10-15T19:21:41.487Z,102451.69
2023-10-15T19:24:09.553Z,102456.81
2023-10-15T19:26:37.860Z,102454.53
2023-10-15T19:29:05.432Z,102452.16
2023-10-15T19:31:32.512Z,102459.03
2023-10-15T19:33:59.640Z,102460.84
2023-10-15T19:36:26.677Z,102459.03
2023-10-15T19:38:53.807Z,102465.44
2023-10-15T19:41:20.926Z,102470.34
2023-10-15T19:43:48.001Z,102475.59
2023-10-15T19:46:15.602Z,102481.56
2023-10-15T19:48:43.260Z,102479.19
2023-10-15T19:51:10.446Z,102477.78
2023-10-15T19:53:37.506Z,102471.31
2023-10-15T19:56:04.682Z,102473.94
2023-10-15T19:58:31.835Z,102476.22
2023-10-15T20:01:00.669Z,102476.00
2023-10-15T20:03:30.439Z,102478.00
2023-10-15T20:06:01.049Z,102475.22
2023-10-15T20:08:29.205Z,102481.84
2023-10-15T20:10:56.267Z,102472.25
2023-10-15T20:13:23.543Z,102471.81
2023-10-15T20:15:51.465Z,102473.53
2023-10-15T20:18:18.495Z,102467.31
2023-10-15T20:20:46.735Z,102471.56
2023-10-15T20:23:13.744Z,102472.38
2023-10-15T20:25:40.764Z,102473.66
2023-10-15T20:28:07.876Z,102475.75
2023-10-15T20:30:34.978Z,102478.28
2023-10-15T20:33:01.966Z,102475.75
2023-10-15T20:35:28.976Z,102475.84
2023-10-15T20:37:58.472Z,102487.72
2023-10-15T20:40:27.100Z,102485.09
2023-10-15T20:42:55.242Z,102490.50
2023-10-15T20:45:26.449Z,102480.50
2023-10-15T20:47:56.586Z,102479.09
2023-10-15T20:50:23.966Z,102475.41
2023-10-15T20:52:51.060Z,102476.91
2023-10-15T20:55:19.306Z,102468.00
2023-10-15T20:57:47.526Z,102460.88
2023-10-15T21:00:20.919Z,102459.56
2023-10-15T21:02:48.947Z,102459.47
2023-10-15T21:05:19.104Z,102460.97
2023-10-15T21:07:50.876Z,102461.53
2023-10-15T21:10:18.116Z,102462.19
2023-10-15T21:12:45.666Z,102456.88
2023-10-15T21:15:13.800Z,102457.50
2023-10-15T21:17:42.412Z,102460.94
2023-10-15T21:20:11.644Z,102464.38
2023-10-15T21:22:41.383Z,102460.38
2023-10-15T21:25:16.286Z,102459.84
2023-10-15T21:27:43.628Z,102462.47
2023-10-15T21:30:12.653Z,102447.50
2023-10-15T21:32:40.938Z,102456.09
2023-10-15T21:35:10.474Z,102451.75
2023-10-15T21:37:40.327Z,102456.72
2023-10-15T21:40:15.976Z,102461.84
2023-10-15T21:42:44.273Z,102454.56
2023-10-15T21:45:12.860Z,102453.66
2023-10-15T21:47:41.069Z,102458.34
2023-10-15T21:50:09.141Z,102460.22
2023-10-15T21:52:39.144Z,102456.00
2023-10-15T21:55:07.266Z,102459.34
2023-10-15T21:57:34.477Z,102450.69
2023-10-15T22:00:01.822Z,102458.44
2023-10-15T22:02:29.917Z,102453.13
2023-10-15T22:04:57.041Z,102458.06
2023-10-15T22:07:23.948Z,102453.28
2023-10-15T22:09:51.075Z,102463.63
2023-10-15T22:12:20.068Z,102462.66
2023-10-15T22:14:47.251Z,102462.47
2023-10-15T22:17:19.660Z,102453.53
2023-10-15T22:19:46.835Z,102461.84
2023-10-15T22:22:14.719Z,102459.31
2023-10-15T22:24:41.779Z,102455.38
2023-10-15T22:27:14.468Z,102455.81
2023-10-15T22:29:45.504Z,102453.47
2023-10-15T22:32:13.341Z,102457.59
2023-10-15T22:34:41.501Z,102459.94
2023-10-15T22:37:08.969Z,102452.75
2023-10-15T22:39:39.741Z,102449.22
2023-10-15T22:42:16.424Z,102452.38
2023-10-15T22:44:46.984Z,102450.69
2023-10-15T22:47:15.475Z,102446.63
2023-10-15T22:49:43.277Z,102445.63
2023-10-15T22:52:11.457Z,102437.69
2023-10-15T22:54:38.698Z,102441.84
2023-10-15T22:57:05.679Z,102442.56
2023-10-15T22:59:32.856Z,102436.97
2023-10-15T23:02:00.299Z,102429.22
2023-10-15T23:04:27.733Z,102437.03
2023-10-15T23:06:55.076Z,102441.47
2023-10-15T23:09:22.790Z,102436.78
2023-10-15T23:11:50.393Z,102445.34
2023-10-15T23:14:17.585Z,102431.63
2023-10-15T23:16:46.248Z,102429.84
2023-10-15T23:19:16.575Z,102426.41
2023-10-15T23:21:56.419Z,102432.72
2023-10-15T23:24:26.723Z,102427.41
2023-10-15T23:26:54.074Z,102428.31
2023-10-15T23:29:25.629Z,102431.72
2023-10-15T23:31:52.864Z,102438.38
2023-10-15T23:34:19.852Z,102435.59
2023-10-15T23:36:46.980Z,102432.59
2023-10-15T23:39:20.672Z,102438.88
2023-10-15T23:41:50.777Z,102435.19
2023-10-15T23:44:22.726Z,102442.22
2023-10-15T23:46:50.078Z,102431.59
2023-10-15T23:49:26.630Z,102443.47
2023-10-15T23:51:53.777Z,102434.75
2023-10-15T23:54:28.009Z,102431.31
2023-10-15T23:56:55.154Z,102425.03
2023-10-15T23:59:22.778Z,102421.69
